Time;durP1;ratioP1;P1;durP2;ratioP2;P2;SDS_P1;SDS_P2;PMS_P1;PMS_P2;Temp;Humidity;BMP_temperature;BMP_pressure;BME280_temperature;BME280_humidity;BME280_pressure;Samples;Min_cycle;Max_cycle;Signal;HPM_P1;HPM_P2
2024/03/20 00:00:11;;;;;;;13.32;5.68;;;8.40;99.90;;;7.82;100.00;101234.59;4135388;28;20026;-68
2024/03/20 00:02:12;;;;;;;12.27;5.25;;;8.40;99.90;;;7.87;100.00;101232.41;4118108;28;20522;-68
2024/03/20 00:04:13;;;;;;;13.73;5.28;;;8.50;99.90;;;7.95;100.00;101227.34;4118484;28;20054;-68
2024/03/20 00:06:14;;;;;;;7.78;4.57;;;8.50;99.90;;;8.00;100.00;101217.31;4118073;28;20027;-68
2024/03/20 00:08:15;;;;;;;12.18;5.18;;;8.50;99.90;;;7.98;100.00;101225.31;4135571;28;20022;-68
2024/03/20 00:10:16;;;;;;;7.90;4.43;;;8.60;99.90;;;7.96;100.00;101222.00;4118321;28;20031;-68
2024/03/20 00:12:17;;;;;;;7.93;4.00;;;8.60;99.90;;;7.85;100.00;101224.69;4118416;28;20561;-68
2024/03/20 00:14:18;;;;;;;7.97;3.90;;;8.50;99.90;;;7.77;100.00;101227.09;4132441;28;20026;-68
2024/03/20 00:16:20;;;;;;;8.43;3.72;;;8.50;99.90;;;7.69;100.00;101227.72;4134695;28;20046;-68
2024/03/20 00:18:21;;;;;;;6.63;4.43;;;8.40;99.90;;;7.60;100.00;101215.34;4135726;28;20019;-68
2024/03/20 00:20:24;;;;;;;8.40;4.53;;;8.30;99.90;;;7.57;100.00;101220.03;4135823;28;20035;-68
2024/03/20 00:22:25;;;;;;;8.60;4.25;;;8.20;99.90;;;7.52;100.00;101212.53;4135849;28;20029;-68
2024/03/20 00:24:26;;;;;;;8.65;4.22;;;8.20;99.90;;;7.51;100.00;101210.84;4134424;28;20038;-68
2024/03/20 00:26:28;;;;;;;6.45;3.72;;;8.20;99.90;;;7.49;100.00;101212.78;4134151;28;20102;-68
2024/03/20 00:28:30;;;;;;;4.75;3.20;;;8.20;99.90;;;7.51;100.00;101216.09;4118624;28;20050;-68
2024/03/20 00:30:31;;;;;;;7.32;4.00;;;8.20;99.90;;;7.48;100.00;101216.34;4135729;28;20057;-68
2024/03/20 00:32:32;;;;;;;7.47;3.20;;;8.10;99.90;;;7.46;100.00;101215.66;4135311;28;20038;-68
2024/03/20 00:34:33;;;;;;;9.55;5.10;;;8.10;99.90;;;7.44;100.00;101211.47;4118119;28;20042;-68
2024/03/20 00:36:34;;;;;;;11.60;4.40;;;8.10;99.90;;;7.50;100.00;101214.44;4135600;28;20033;-68
2024/03/20 00:38:35;;;;;;;10.80;4.35;;;8.10;99.90;;;7.50;100.00;101214.44;4146367;28;20026;-68
2024/03/20 00:40:35;;;;;;;7.28;4.28;;;8.10;99.90;;;7.52;100.00;101214.31;4154418;28;20037;-68
2024/03/20 00:42:36;;;;;;;10.13;4.03;;;8.10;99.90;;;7.52;100.00;101217.78;4154450;28;20045;-68
2024/03/20 00:44:37;;;;;;;11.85;4.55;;;8.20;99.90;;;7.51;100.00;101210.84;4139602;28;20023;-68
2024/03/20 00:46:38;;;;;;;9.30;5.07;;;8.10;99.90;;;7.53;100.00;101206.31;4138411;28;20034;-68
2024/03/20 00:48:39;;;;;;;14.73;7.43;;;8.20;99.90;;;7.60;100.00;101199.59;4138285;28;20034;-68
2024/03/20 00:50:40;;;;;;;17.98;8.02;;;8.20;99.90;;;7.68;100.00;101199.81;4136934;28;20037;-68
2024/03/20 00:52:41;;;;;;;14.50;7.30;;;8.30;99.90;;;7.71;100.00;101190.81;4138336;28;20041;-68
2024/03/20 00:54:41;;;;;;;7.60;4.95;;;8.30;99.90;;;7.70;100.00;101190.03;4136942;28;20022;-68
2024/03/20 00:56:42;;;;;;;9.00;4.13;;;8.30;99.90;;;7.63;100.00;101194.09;4138000;28;20085;-68
2024/03/20 00:58:43;;;;;;;8.07;3.83;;;8.30;99.90;;;7.52;100.00;101195.94;4136899;28;20030;-68
2024/03/20 01:00:46;;;;;;;4.97;3.97;;;8.20;99.90;;;7.45;100.00;101198.22;4120963;28;20486;-68
2024/03/20 01:02:47;;;;;;;9.90;4.18;;;8.10;99.90;;;7.41;100.00;101199.44;4137165;28;20046;-68
2024/03/20 01:04:48;;;;;;;5.78;3.90;;;8.10;99.90;;;7.36;100.00;101191.09;4132844;28;20053;-68
2024/03/20 01:06:48;;;;;;;5.15;3.28;;;8.00;99.90;;;7.35;100.00;101199.13;4136729;28;20525;-68
2024/03/20 01:08:49;;;;;;;6.82;3.97;;;8.00;99.90;;;7.32;100.00;101208.03;4138051;28;20026;-68
2024/03/20 01:10:50;;;;;;;9.25;3.90;;;8.00;99.90;;;7.28;100.00;101201.41;4137785;28;20031;-68
2024/03/20 01:12:51;;;;;;;7.60;4.18;;;8.00;99.90;;;7.25;100.00;101204.25;4138044;28;20026;-68
2024/03/20 01:14:52;;;;;;;7.13;4.05;;;8.00;99.90;;;7.24;100.00;101206.06;4120483;28;20026;-68
2024/03/20 01:16:53;;;;;;;7.35;4.20;;;7.90;99.90;;;7.22;100.00;101207.13;4137909;28;20031;-68
2024/03/20 01:18:55;;;;;;;7.05;4.00;;;7.90;99.90;;;7.24;100.00;101206.06;4137538;28;20057;-68
2024/03/20 01:20:56;;;;;;;10.18;4.90;;;7.90;99.90;;;7.27;100.00;101198.88;4132266;28;20061;-68
2024/03/20 01:23:00;;;;;;;10.18;6.05;;;7.90;99.90;;;7.29;100.00;101194.38;4137613;28;20023;-68
2024/03/20 01:25:06;;;;;;;10.38;5.88;;;7.90;99.90;;;7.34;100.00;101187.78;4137853;28;20030;-68
2024/03/20 01:27:07;;;;;;;11.68;6.60;;;7.90;99.90;;;7.42;100.00;101195.84;4136518;28;20069;-68
2024/03/20 01:29:08;;;;;;;11.63;5.53;;;8.00;99.90;;;7.47;100.00;101196.31;4137770;28;20034;-68
2024/03/20 01:31:09;;;;;;;10.32;5.13;;;8.10;99.90;;;7.49;100.00;101191.78;4137241;28;20383;-68
2024/03/20 01:33:10;;;;;;;7.93;4.93;;;8.10;99.90;;;7.45;100.00;101189.50;4137680;28;20026;-68
2024/03/20 01:35:11;;;;;;;9.80;5.32;;;8.10;99.90;;;7.41;100.00;101194.19;4121312;28;20023;-68
2024/03/20 01:37:11;;;;;;;9.45;5.50;;;8.10;99.90;;;7.44;100.00;101191.31;4120354;28;20035;-68
2024/03/20 01:39:12;;;;;;;7.07;4.80;;;8.10;99.90;;;7.42;100.00;101189.75;4151006;28;20041;-68
2024/03/20 01:41:13;;;;;;;11.27;5.50;;;8.10;99.90;;;7.41;100.00;101194.19;4153607;28;20040;-68
2024/03/20 01:43:19;;;;;;;13.23;5.78;;;8.00;99.90;;;7.40;100.00;101200.41;4133364;28;20023;-68
2024/03/20 01:45:21;;;;;;;11.02;6.10;;;8.00;99.90;;;7.41;100.00;101194.19;4136958;28;20034;-68
2024/03/20 01:47:22;;;;;;;12.65;6.28;;;8.00;99.90;;;7.41;100.00;101188.94;4137286;28;20109;-68
2024/03/20 01:49:24;;;;;;;10.02;5.75;;;8.00;99.90;;;7.44;100.00;101196.56;4137330;28;20105;-68
2024/03/20 01:51:27;;;;;;;11.90;6.68;;;8.10;99.90;;;7.51;100.00;101197.72;4136330;28;20034;-68
2024/03/20 01:53:28;;;;;;;11.15;7.28;;;8.10;99.90;;;7.54;100.00;101194.84;4136173;28;20027;-68
2024/03/20 01:55:30;;;;;;;11.82;6.45;;;8.10;99.90;;;7.59;100.00;101190.06;4119883;28;20090;-68
2024/03/20 01:57:30;;;;;;;9.52;6.22;;;8.20;99.90;;;7.60;100.00;101185.63;4137154;28;20038;-68
2024/03/20 01:59:31;;;;;;;13.25;6.07;;;8.20;99.90;;;7.61;100.00;101180.28;4137313;28;20026;-68
2024/03/20 02:01:32;;;;;;;10.15;4.60;;;8.20;99.90;;;7.59;100.00;101182.19;4136171;28;20026;-68
2024/03/20 02:03:33;;;;;;;8.85;5.22;;;8.20;99.90;;;7.56;100.00;101176.34;4137004;28;20442;-68
2024/03/20 02:05:34;;;;;;;12.05;5.35;;;8.20;99.90;;;7.53;100.00;101172.19;4137109;28;20479;-68
2024/03/20 02:07:35;;;;;;;6.00;3.67;;;8.20;99.90;;;7.45;100.00;101177.22;4136064;28;20528;-68
2024/03/20 02:09:36;;;;;;;7.30;4.07;;;8.10;99.90;;;7.39;100.00;101171.66;4119763;28;20035;-68
2024/03/20 02:11:36;;;;;;;7.72;4.20;;;8.10;99.90;;;7.32;100.00;101168.69;4135719;28;20105;-68
2024/03/20 02:13:47;;;;;;;8.38;4.68;;;8.00;99.90;;;7.30;100.00;101165.34;4119798;28;20051;-68
2024/03/20 02:15:48;;;;;;;7.47;5.03;;;8.00;99.90;;;7.24;100.00;101165.84;4135891;28;20026;-68
2024/03/20 02:17:49;;;;;;;6.78;4.82;;;8.00;99.90;;;7.21;100.00;101161.69;4135842;28;20477;-68
2024/03/20 02:19:50;;;;;;;6.53;4.75;;;7.90;99.90;;;7.19;100.00;101168.88;4119564;28;20042;-68
2024/03/20 02:21:51;;;;;;;7.30;4.10;;;7.90;99.90;;;7.20;100.00;101164.41;4137148;28;20037;-68
2024/03/20 02:23:52;;;;;;;7.32;3.97;;;7.90;99.90;;;7.18;100.00;101166.34;4136888;28;20037;-68
2024/03/20 02:25:53;;;;;;;5.78;3.80;;;7.80;99.90;;;7.13;100.00;101164.09;4136615;28;20034;-67
2024/03/20 02:27:54;;;;;;;7.28;4.80;;;7.80;99.90;;;7.10;100.00;101158.28;4136882;28;20092;-68
2024/03/20 02:29:55;;;;;;;8.18;4.47;;;7.80;99.90;;;7.09;100.00;101165.31;4135611;28;20033;-68
2024/03/20 02:31:56;;;;;;;7.65;5.50;;;7.80;99.90;;;7.09;100.00;101157.44;4136598;28;20046;-68
2024/03/20 02:33:56;;;;;;;8.25;4.78;;;7.80;99.90;;;7.08;100.00;101160.16;4127121;28;20113;-68
2024/03/20 02:35:57;;;;;;;10.45;6.13;;;7.80;99.90;;;7.07;100.00;101155.91;4136563;28;20556;-68
2024/03/20 02:37:58;;;;;;;10.80;6.18;;;7.70;99.90;;;7.09;100.00;101156.59;4141081;28;20029;-68
2024/03/20 02:39:59;;;;;;;8.80;4.57;;;7.80;99.90;;;7.12;100.00;101159.81;4135496;28;20030;-68
2024/03/20 02:42:00;;;;;;;8.73;5.43;;;7.80;99.90;;;7.10;100.00;101155.66;4152801;28;20485;-68
2024/03/20 02:44:01;;;;;;;8.05;4.55;;;7.80;99.90;;;7.06;100.00;101152.44;4144413;28;20486;-67
2024/03/20 02:46:02;;;;;;;6.93;4.47;;;7.80;99.90;;;7.03;100.00;101157.94;4136600;28;20494;-68
2024/03/20 02:48:04;;;;;;;7.03;4.30;;;7.70;99.90;;;7.02;100.00;101153.63;4136656;28;20042;-70
2024/03/20 02:50:06;;;;;;;11.57;5.40;;;7.70;99.90;;;7.03;100.00;101163.16;4136401;28;20114;-68
2024/03/20 02:52:06;;;;;;;11.07;6.88;;;7.70;99.90;;;7.05;100.00;101160.41;4136433;28;20125;-68
2024/03/20 02:54:07;;;;;;;9.15;6.05;;;7.70;99.90;;;7.11;100.00;101157.28;4135215;28;20530;-68
2024/03/20 02:56:08;;;;;;;14.52;7.15;;;7.80;99.90;;;7.14;100.00;101155.25;4136244;28;20026;-68
2024/03/20 02:58:09;;;;;;;9.68;5.38;;;7.80;99.90;;;7.18;100.00;101154.06;4119150;28;20130;-68
2024/03/20 03:00:12;;;;;;;9.45;5.55;;;7.80;99.90;;;7.21;100.00;101156.44;4135860;28;20072;-68
2024/03/20 03:02:13;;;;;;;6.22;4.43;;;7.80;99.90;;;7.19;100.00;101160.16;4135019;28;20042;-68
2024/03/20 03:04:13;;;;;;;6.97;4.65;;;7.90;99.90;;;7.17;100.00;101149.78;4136323;28;20029;-68
2024/03/20 03:06:15;;;;;;;8.13;4.63;;;7.90;99.90;;;7.16;100.00;101142.03;4136214;28;20045;-68
2024/03/20 03:08:16;;;;;;;6.18;3.85;;;7.80;99.90;;;7.17;100.00;101149.78;4135156;28;20036;-68
2024/03/20 03:10:19;;;;;;;9.25;4.30;;;7.90;99.90;;;7.16;100.00;101147.28;4136238;28;20489;-68
2024/03/20 03:12:19;;;;;;;8.50;4.93;;;7.80;99.90;;;7.10;100.00;101134.66;4134990;28;20517;-68
2024/03/20 03:14:21;;;;;;;8.38;4.68;;;7.80;99.90;;;7.06;100.00;101138.47;4136213;28;20030;-68
2024/03/20 03:16:21;;;;;;;7.75;3.95;;;7.80;99.90;;;7.04;100.00;101132.53;4118803;28;20523;-68
2024/03/20 03:18:22;;;;;;;7.53;4.28;;;7.70;99.90;;;7.02;100.00;101134.44;4136023;28;20041;-68
2024/03/20 03:20:26;;;;;;;7.93;4.03;;;7.70;99.90;;;7.01;100.00;101124.91;4136162;28;20486;-68
2024/03/20 03:22:26;;;;;;;5.32;3.42;;;7.70;99.90;;;7.00;100.00;101128.47;4136144;28;20530;-68
2024/03/20 03:24:27;;;;;;;10.13;4.10;;;7.70;99.90;;;6.99;100.00;101125.03;4134360;28;20034;-68
2024/03/20 03:26:28;;;;;;;8.70;4.32;;;7.70;99.90;;;6.98;100.00;101135.66;4135976;28;20032;-68
2024/03/20 03:28:29;;;;;;;9.02;4.78;;;7.70;99.90;;;6.96;100.00;101130.50;4136203;28;20026;-68
2024/03/20 03:30:30;;;;;;;7.75;5.30;;;7.60;99.90;;;6.96;100.00;101129.69;4135946;28;20039;-68
2024/03/20 03:32:31;;;;;;;11.18;6.38;;;7.60;99.90;;;6.93;100.00;101115.03;4135879;28;20039;-68
2024/03/20 03:34:32;;;;;;;14.30;7.68;;;7.60;99.90;;;7.05;100.00;101121.91;4118574;28;20113;-68
2024/03/20 03:36:34;;;;;;;12.35;7.82;;;7.70;99.90;;;7.10;100.00;101114.50;4135458;28;20446;-68
2024/03/20 03:38:36;;;;;;;13.90;7.68;;;7.70;99.90;;;7.17;100.00;101122.69;4143651;28;20058;-68
2024/03/20 03:40:36;;;;;;;8.77;5.28;;;7.80;99.90;;;7.15;100.00;101122.00;4151970;28;20163;-68
2024/03/20 03:42:39;;;;;;;7.93;5.32;;;7.80;99.90;;;7.07;100.00;101112.13;4128838;28;20038;-68
2024/03/20 03:44:40;;;;;;;8.88;4.80;;;7.70;99.90;;;7.07;100.00;101111.31;4136012;28;20486;-68
2024/03/20 03:46:41;;;;;;;9.93;5.35;;;7.70;99.90;;;7.06;100.00;101115.72;4135959;28;20045;-68
2024/03/20 03:48:42;;;;;;;7.45;4.75;;;7.70;99.90;;;7.06;100.00;101110.47;4135927;28;20049;-68
2024/03/20 03:50:43;;;;;;;8.20;4.97;;;7.70;99.90;;;7.03;100.00;101105.47;4134685;28;20143;-68
2024/03/20 03:52:44;;;;;;;6.00;4.38;;;7.70;99.90;;;6.99;100.00;101105.84;4136126;28;20030;-68
2024/03/20 03:54:45;;;;;;;7.60;4.05;;;7.70;99.90;;;6.92;100.00;101100.25;4135755;28;20054;-68
2024/03/20 03:56:45;;;;;;;5.90;3.63;;;7.60;99.90;;;6.95;100.00;101118.38;4134488;28;20462;-68
2024/03/20 03:58:46;;;;;;;4.88;3.65;;;7.60;99.90;;;6.93;100.00;101115.03;4135676;28;20402;-68
2024/03/20 04:00:47;;;;;;;8.82;4.50;;;7.60;99.90;;;6.91;100.00;101103.00;4135924;28;20022;-68
2024/03/20 04:02:48;;;;;;;7.95;5.93;;;7.60;99.90;;;6.92;100.00;101108.13;4134682;28;20035;-68
2024/03/20 04:04:50;;;;;;;13.27;7.82;;;7.60;99.90;;;6.99;100.00;101098.78;4135606;28;20038;-68
2024/03/20 04:06:51;;;;;;;12.18;8.18;;;7.60;99.90;;;7.10;100.00;101103.19;4135594;28;20037;-68
2024/03/20 04:08:52;;;;;;;13.05;8.35;;;7.70;99.90;;;7.12;100.00;101096.00;4135833;28;20018;-68
2024/03/20 04:10:53;;;;;;;15.25;8.50;;;7.70;99.90;;;7.22;100.00;101096.94;4135473;28;20034;-68
2024/03/20 04:12:53;;;;;;;16.52;8.57;;;7.80;99.90;;;7.23;100.00;101085.47;4136933;28;20561;-68
2024/03/20 04:14:54;;;;;;;16.98;9.30;;;7.80;99.90;;;7.29;100.00;101095.47;4138696;28;20030;-68
2024/03/20 04:16:55;;;;;;;12.82;8.07;;;7.90;99.90;;;7.31;100.00;101093.56;4138958;28;20698;-68
2024/03/20 04:18:56;;;;;;;14.85;8.18;;;7.90;99.90;;;7.32;100.00;101095.19;4138820;28;20396;-68
2024/03/20 04:20:57;;;;;;;15.73;9.20;;;8.00;99.90;;;7.32;100.00;101089.16;4138797;28;20033;-68
2024/03/20 04:22:58;;;;;;;11.07;7.25;;;8.00;99.90;;;7.34;100.00;101101.19;4138651;28;20057;-68
2024/03/20 04:24:59;;;;;;;15.15;8.35;;;8.00;99.90;;;7.31;100.00;101095.34;4138581;28;20030;-67
2024/03/20 04:26:59;;;;;;;12.68;7.68;;;8.00;99.90;;;7.34;100.00;101092.47;4138539;28;20121;-68
2024/03/20 04:29:00;;;;;;;15.25;8.32;;;8.00;99.90;;;7.33;100.00;101103.91;4138672;28;20022;-68
2024/03/20 04:31:01;;;;;;;12.85;7.70;;;8.00;99.90;;;7.31;100.00;101100.59;4121200;28;20027;-68
2024/03/20 04:33:02;;;;;;;13.90;8.57;;;7.90;99.90;;;7.27;100.00;101110.50;4138333;28;20410;-68
2024/03/20 04:35:03;;;;;;;15.88;8.93;;;7.90;99.90;;;7.23;100.00;101106.44;4138440;28;20046;-68
2024/03/20 04:37:04;;;;;;;11.63;7.72;;;7.90;99.90;;;7.22;100.00;101105.66;4137343;28;20029;-68
2024/03/20 04:39:07;;;;;;;15.75;8.00;;;7.90;99.90;;;7.20;100.00;101106.69;4133970;28;20038;-68
2024/03/20 04:41:10;;;;;;;16.05;8.02;;;7.80;99.90;;;7.17;100.00;101113.03;4121079;28;20023;-68
2024/03/20 04:43:11;;;;;;;12.65;7.68;;;7.80;99.90;;;7.10;100.00;101109.28;4154780;28;20030;-68
2024/03/20 04:45:12;;;;;;;11.18;7.15;;;7.80;99.90;;;7.08;100.00;101115.56;4120857;28;20037;-68
2024/03/20 04:47:13;;;;;;;13.90;7.88;;;7.70;99.90;;;7.05;100.00;101106.16;4120665;28;20375;-68
2024/03/20 04:49:14;;;;;;;11.02;7.35;;;7.70;99.90;;;7.06;100.00;101109.63;4137902;28;20473;-68
2024/03/20 04:51:14;;;;;;;13.80;8.00;;;7.70;99.90;;;7.03;100.00;101110.72;4137939;28;20062;-68
2024/03/20 04:53:16;;;;;;;13.43;7.15;;;7.70;99.90;;;7.00;100.00;101107.50;4137857;28;20029;-68
2024/03/20 04:55:17;;;;;;;13.93;7.32;;;7.70;99.90;;;6.99;100.00;101103.22;4122920;28;20031;-68
2024/03/20 04:57:17;;;;;;;19.13;8.05;;;7.60;99.90;;;6.96;100.00;101104.28;4140281;28;20385;-68
2024/03/20 04:59:18;;;;;;;13.10;7.20;;;7.60;99.90;;;6.91;100.00;101095.97;4138338;28;20022;-68
2024/03/20 05:01:19;;;;;;;18.20;7.40;;;7.60;99.90;;;6.94;100.00;101105.38;4120331;28;20019;-68
2024/03/20 05:03:20;;;;;;;14.60;7.45;;;7.60;99.90;;;6.91;100.00;101095.97;4137671;28;20030;-68
2024/03/20 05:05:21;;;;;;;11.70;6.63;;;7.60;99.90;;;6.94;100.00;101100.97;4138826;28;20022;-68
2024/03/20 05:07:22;;;;;;;14.18;7.75;;;7.60;99.90;;;6.97;100.00;101102.50;4137695;28;20030;-68
2024/03/20 05:09:23;;;;;;;14.57;7.55;;;7.60;99.90;;;6.98;100.00;101093.69;4137631;28;20402;-68
2024/03/20 05:11:23;;;;;;;17.45;7.68;;;7.60;99.90;;;6.97;100.00;101087.59;4137755;28;20026;-68
2024/03/20 05:13:24;;;;;;;15.00;7.30;;;7.60;99.90;;;6.99;100.00;101093.53;4120163;28;20018;-68
2024/03/20 05:15:25;;;;;;;18.58;7.72;;;7.60;99.90;;;6.99;100.00;101092.75;4137168;28;20023;-68
2024/03/20 05:17:27;;;;;;;16.38;7.75;;;7.60;99.90;;;6.98;100.00;101086.66;4105687;28;20073;-68
2024/03/20 05:19:28;;;;;;;11.98;7.20;;;7.60;99.90;;;6.99;100.00;101088.31;4133586;28;20030;-68
2024/03/20 05:21:28;;;;;;;14.30;7.65;;;7.60;99.90;;;7.00;100.00;101078.66;4134038;28;20033;-68
2024/03/20 05:23:29;;;;;;;12.85;7.20;;;7.60;99.90;;;6.98;100.00;101078.78;4137155;28;20038;-68
2024/03/20 05:25:35;;;;;;;14.35;8.23;;;7.60;99.90;;;6.98;100.00;101067.47;4138005;28;20018;-68
2024/03/20 05:27:36;;;;;;;14.68;6.60;;;7.60;99.90;;;6.95;100.00;101072.97;4120322;28;20438;-68
2024/03/20 05:29:37;;;;;;;12.43;6.95;;;7.60;99.90;;;6.96;100.00;101077.25;4119940;28;20019;-68
2024/03/20 05:31:42;;;;;;;15.10;7.28;;;7.60;99.90;;;6.94;100.00;101073.91;4137599;28;20046;-68
2024/03/20 05:33:43;;;;;;;17.98;7.25;;;7.60;99.90;;;6.94;100.00;101073.91;4120928;28;20022;-68
2024/03/20 05:35:44;;;;;;;14.52;6.65;;;7.60;99.90;;;6.98;100.00;101073.53;4137569;28;20052;-68
2024/03/20 05:37:45;;;;;;;15.23;7.00;;;7.60;99.90;;;6.95;100.00;101079.03;4138103;28;20032;-68
2024/03/20 05:39:45;;;;;;;15.07;7.13;;;7.60;99.90;;;6.95;100.00;101065.09;4137637;28;20042;-68
2024/03/20 05:41:46;;;;;;;11.35;6.65;;;7.60;99.90;;;6.93;100.00;101061.78;4136276;28;20035;-68
2024/03/20 05:43:47;;;;;;;11.00;7.63;;;7.60;99.90;;;6.96;100.00;101072.81;4120320;28;20027;-68
2024/03/20 05:45:48;;;;;;;15.43;6.95;;;7.60;99.90;;;6.95;100.00;101076.41;4137332;28;20061;-68
2024/03/20 05:47:49;;;;;;;12.52;7.38;;;7.60;99.90;;;6.98;100.00;101070.09;4137480;28;20038;-68
2024/03/20 05:49:50;;;;;;;11.25;7.28;;;7.60;99.90;;;6.99;100.00;101079.63;4136329;28;20027;-68
2024/03/20 05:51:50;;;;;;;15.70;6.68;;;7.60;99.90;;;6.99;100.00;101072.56;4120095;28;20035;-68
2024/03/20 05:53:51;;;;;;;12.10;7.03;;;7.60;99.90;;;6.97;100.00;101069.25;4137180;28;20027;-68
2024/03/20 05:55:53;;;;;;;11.60;6.63;;;7.60;99.90;;;6.98;100.00;101081.41;4135965;28;20498;-68
2024/03/20 05:57:54;;;;;;;14.07;7.57;;;7.60;99.90;;;6.95;100.00;101065.09;4137318;28;20022;-67
2024/03/20 05:59:55;;;;;;;14.63;7.35;;;7.60;99.90;;;6.92;100.00;101067.97;4137258;28;20027;-68
2024/03/20 06:01:56;;;;;;;12.50;7.32;;;7.60;99.90;;;6.91;100.00;101072.38;4137121;28;20083;-68
2024/03/20 06:03:57;;;;;;;15.63;6.93;;;7.60;99.90;;;6.91;100.00;101080.22;4136028;28;20030;-68
2024/03/20 06:05:58;;;;;;;11.38;6.68;;;7.50;99.90;;;6.83;100.00;101064.28;4137023;28;20030;-68
2024/03/20 06:08:00;;;;;;;15.90;7.43;;;7.50;99.90;;;6.87;100.00;101067.50;4119758;28;20027;-68
2024/03/20 06:10:01;;;;;;;14.35;6.95;;;7.50;99.90;;;6.84;100.00;101062.50;4136896;28;20434;-68
2024/03/20 06:12:04;;;;;;;16.23;7.45;;;7.50;99.90;;;6.88;100.00;101069.16;4119670;28;20026;-68
2024/03/20 06:14:04;;;;;;;16.95;7.10;;;7.50;99.90;;;6.89;100.00;101066.41;4136868;28;20029;-68
2024/03/20 06:16:06;;;;;;;14.13;6.70;;;7.50;99.90;;;6.90;100.00;101067.25;4119773;28;20022;-68
2024/03/20 06:18:07;;;;;;;20.38;7.82;;;7.60;99.90;;;6.97;100.00;101078.91;4119589;28;20027;-68
2024/03/20 06:20:08;;;;;;;12.88;7.13;;;7.60;99.90;;;6.90;100.00;101067.25;4126037;28;20070;-68
2024/03/20 06:22:09;;;;;;;13.52;6.57;;;7.60;99.90;;;6.98;100.00;101070.09;4137086;28;20058;-68
2024/03/20 06:24:10;;;;;;;15.45;7.50;;;7.60;99.90;;;7.00;100.00;101065.53;4136811;28;20430;-68
2024/03/20 06:26:11;;;;;;;14.35;6.85;;;7.70;99.90;;;7.09;100.00;101081.38;4103197;28;20034;-68
2024/03/20 06:28:11;;;;;;;13.55;6.93;;;7.70;99.90;;;7.10;100.00;101075.16;4136919;28;20525;-68
2024/03/20 06:30:15;;;;;;;11.52;5.85;;;7.70;99.90;;;7.15;100.00;101077.41;4135203;28;20473;-68
2024/03/20 06:32:16;;;;;;;9.63;5.90;;;7.80;99.90;;;7.14;100.00;101075.72;4136209;28;20469;-68
2024/03/20 06:34:17;;;;;;;19.42;7.32;;;7.80;99.90;;;7.16;100.00;101079.06;4119387;28;20031;-68
2024/03/20 06:36:18;;;;;;;13.30;6.85;;;7.80;99.90;;;7.19;100.00;101084.91;4134843;28;20026;-68
2024/03/20 06:38:19;;;;;;;11.30;5.93;;;7.80;99.90;;;7.23;100.00;101090.72;4133983;28;20023;-68
2024/03/20 06:40:21;;;;;;;11.02;5.95;;;7.80;99.90;;;7.27;100.00;101086.06;4152673;28;20030;-68
2024/03/20 06:42:21;;;;;;;13.30;7.05;;;7.90;99.90;;;7.33;100.00;101086.38;4135321;28;20133;-68
2024/03/20 06:44:22;;;;;;;11.35;6.20;;;7.90;99.90;;;7.40;100.00;101091.97;4128084;28;20019;-68
2024/03/20 06:46:25;;;;;;;14.15;6.38;;;8.00;99.90;;;7.44;100.00;101099.44;4119331;28;20035;-68
2024/03/20 06:48:28;;;;;;;14.00;6.80;;;8.00;99.90;;;7.50;100.00;101103.34;4136430;28;20034;-68
2024/03/20 06:50:29;;;;;;;13.75;7.55;;;8.10;99.90;;;7.56;100.00;101108.09;4136285;28;20034;-68
2024/03/20 06:52:38;;;;;;;13.15;7.40;;;8.10;99.90;;;7.61;100.00;101108.56;4135289;28;20022;-68
2024/03/20 06:54:44;;;;;;;11.65;6.55;;;8.20;99.90;;;7.64;100.00;101103.88;4118950;28;20027;-68
2024/03/20 06:56:48;;;;;;;11.13;5.90;;;8.20;99.90;;;7.70;100.00;101099.91;4118784;28;20077;-68
2024/03/20 06:58:49;;;;;;;;;;;8.30;99.90;;;7.71;100.00;101101.56;4136851;28;20054;-68
2024/03/20 07:00:50;;;;;;;8.77;5.35;;;8.30;99.90;;;7.73;100.00;101108.38;4135380;28;19910;-68
2024/03/20 07:02:50;;;;;;;13.55;6.50;;;8.40;99.90;;;7.76;100.00;101096.78;4136403;28;20030;-68
2024/03/20 07:04:51;;;;;;;12.07;6.53;;;8.30;99.90;;;7.76;100.00;101097.56;4136272;28;20027;-68
2024/03/20 07:06:52;;;;;;;12.40;6.97;;;8.40;99.90;;;7.79;100.00;101099.13;4135889;28;20018;-68
2024/03/20 07:08:53;;;;;;;10.68;6.53;;;8.40;99.90;;;7.77;100.00;101094.00;4139364;28;20466;-68
2024/03/20 07:10:54;;;;;;;12.55;6.20;;;8.40;99.90;;;7.79;100.00;101097.31;4134959;28;20037;-68
2024/03/20 07:12:55;;;;;;;10.15;6.07;;;8.40;99.90;;;7.83;100.00;101097.91;4152431;28;20401;-68
2024/03/20 07:14:56;;;;;;;13.40;6.40;;;8.40;99.90;;;7.86;100.00;101095.00;4140657;28;20019;-68
2024/03/20 07:16:57;;;;;;;11.52;6.00;;;8.50;99.90;;;7.92;100.00;101106.78;4134976;28;20156;-68
2024/03/20 07:18:58;;;;;;;11.85;5.97;;;8.50;99.90;;;7.97;100.00;101107.25;4136156;28;20031;-68
2024/03/20 07:20:59;;;;;;;9.50;5.88;;;8.60;99.90;;;7.98;100.00;101095.75;4136261;28;20041;-68
2024/03/20 07:23:01;;;;;;;10.65;6.22;;;8.60;99.90;;;8.04;100.00;101103.13;4134995;28;20030;-68
2024/03/20 07:25:02;;;;;;;9.27;5.55;;;8.60;99.90;;;8.11;100.00;101104.28;4136010;28;20379;-67
2024/03/20 07:27:03;;;;;;;12.73;5.68;;;8.70;99.90;;;8.18;100.00;101108.84;4134699;28;20034;-68
2024/03/20 07:29:09;;;;;;;10.82;5.57;;;8.80;99.90;;;8.28;100.00;101116.81;4136011;28;20065;-68
2024/03/20 07:31:10;;;;;;;9.57;5.85;;;8.90;99.90;;;8.39;100.00;101119.38;4134192;28;20038;-69
2024/03/20 07:33:11;;;;;;;9.68;5.35;;;8.90;99.90;;;8.49;100.00;101116.75;4102712;29;20464;-68
2024/03/20 07:35:12;;;;;;;9.93;5.85;;;9.00;99.90;;;8.59;100.00;101126.34;4135302;28;20031;-68
2024/03/20 07:37:13;;;;;;;12.10;5.90;;;9.10;99.90;;;8.72;100.00;101121.66;4118734;28;20049;-67
2024/03/20 07:39:13;;;;;;;10.15;5.85;;;9.20;99.90;;;8.81;100.00;101109.53;4140722;28;20037;-68
2024/03/20 07:41:15;;;;;;;10.05;5.43;;;9.30;99.90;;;8.89;100.00;101109.69;4136325;28;20442;-68
2024/03/20 07:43:15;;;;;;;8.15;5.53;;;9.40;99.90;;;9.09;100.00;101119.25;4118753;28;20026;-68
2024/03/20 07:45:16;;;;;;;11.60;5.30;;;9.50;99.90;;;9.24;100.00;101120.50;4136468;28;20019;-68
2024/03/20 07:47:17;;;;;;;9.85;5.10;;;9.70;99.90;;;9.47;100.00;101112.34;4104072;28;20023;-68
2024/03/20 07:49:19;;;;;;;8.80;5.03;;;9.90;99.90;;;9.66;100.00;101128.09;4138818;28;20057;-68
2024/03/20 07:51:20;;;;;;;9.55;5.45;;;10.10;99.90;;;9.86;100.00;101119.19;4137700;28;20463;-68
2024/03/20 07:53:21;;;;;;;11.35;5.47;;;10.30;99.90;;;10.03;100.00;101121.91;4119385;28;20034;-68
2024/03/20 07:55:22;;;;;;;9.45;5.38;;;10.50;99.90;;;10.05;100.00;101103.34;4152085;28;20033;-68
2024/03/20 07:57:25;;;;;;;10.40;5.40;;;10.60;99.90;;;10.28;100.00;101112.56;4149949;28;20030;-68
2024/03/20 07:59:26;;;;;;;8.35;4.57;;;10.80;99.90;;;10.30;100.00;101112.44;4154760;28;20061;-68
2024/03/20 08:01:26;;;;;;;9.80;4.90;;;10.80;99.90;;;10.31;100.00;101119.34;4153802;28;20403;-68
2024/03/20 08:03:27;;;;;;;8.60;4.72;;;10.90;99.90;;;10.19;100.00;101115.25;4154480;28;20021;-69
2024/03/20 08:05:28;;;;;;;9.60;4.35;;;10.90;99.90;;;10.20;100.00;101122.19;4138950;28;20026;-68
2024/03/20 08:07:29;;;;;;;8.15;4.53;;;10.90;99.90;;;10.26;100.00;101132.16;4128881;28;20069;-68
2024/03/20 08:09:30;;;;;;;8.65;4.30;;;10.90;99.90;;;10.29;100.00;101124.78;4152997;28;20026;-68
2024/03/20 08:11:32;;;;;;;10.82;4.38;;;11.00;99.90;;;10.37;100.00;101124.06;4131818;28;20030;-68
2024/03/20 08:13:33;;;;;;;5.97;4.00;;;11.00;99.90;;;10.51;100.00;101126.22;4118332;28;20046;-69
2024/03/20 08:15:34;;;;;;;9.65;4.82;;;11.20;99.90;;;10.62;100.00;101118.13;4137901;28;20482;-69
2024/03/20 08:17:36;;;;;;;10.73;4.72;;;11.30;99.90;;;10.68;100.00;101125.44;4137207;28;20394;-69
2024/03/20 08:19:37;;;;;;;10.85;4.88;;;11.30;99.90;;;10.72;100.00;101139.97;4135239;28;20138;-69
2024/03/20 08:21:38;;;;;;;7.20;4.25;;;11.40;99.90;;;10.72;100.00;101134.72;4155079;28;20022;-69
2024/03/20 08:23:39;;;;;;;5.80;4.10;;;11.40;99.90;;;10.80;100.00;101139.25;4137181;28;20165;-69
2024/03/20 08:25:40;;;;;;;6.70;4.13;;;11.50;99.90;;;10.83;100.00;101138.97;4120861;28;20034;-69